This is the latest recevied weather packets stored in our database for station/object IU0SZS-10. If no packets are shown the sender has not sent any weather packets the latest 10 day(s).
| Time | Temp. | Humidity | Pressure | Rain* | Wind** | Luminosity | Snow |
|---|---|---|---|---|---|---|---|
| 1777867219 | 10° C | 65% | 919 hPa | - | - | - | - |
| 1777866318 | 10° C | 67% | 918.9 hPa | - | - | - | - |
| 1777865417 | 10° C | 66% | 918.9 hPa | - | - | - | - |
| 1777864517 | 10° C | 68% | 919.1 hPa | - | - | - | - |
| 1777863617 | 10° C | 69% | 919 hPa | - | - | - | - |
| 1777862717 | 10° C | 69% | 919.1 hPa | - | - | - | - |
| 1777861817 | 10° C | 70% | 919.2 hPa | - | - | - | - |
| 1777860917 | 10.56° C | 68% | 919.3 hPa | - | - | - | - |
| 1777860016 | 10° C | 69% | 919.2 hPa | - | - | - | - |
| 1777859116 | 10.56° C | 66% | 919.3 hPa | - | - | - | - |
| 1777858249 | 10.56° C | 66% | 919.3 hPa | - | - | - | - |
| 1777858214 | 10.56° C | 66% | 919.3 hPa | - | - | - | - |
| 1777857310 | 11.11° C | 64% | 919.3 hPa | - | - | - | - |
| 1777856409 | 11.11° C | 65% | 919.3 hPa | - | - | - | - |
| 1777855509 | 11.11° C | 64% | 919.4 hPa | - | - | - | - |
| 1777854609 | 10.56° C | 67% | 919.4 hPa | - | - | - | - |
| 1777853709 | 10.56° C | 68% | 919.5 hPa | - | - | - | - |
| 1777852808 | 10.56° C | 69% | 919.5 hPa | - | - | - | - |
| 1777851908 | 11.11° C | 68% | 919.6 hPa | - | - | - | - |
| 1777851008 | 11.11° C | 67% | 919.6 hPa | - | - | - | - |
| 1777850108 | 11.67° C | 63% | 919.6 hPa | - | - | - | - |
| 1777849208 | 12.22° C | 58% | 919.7 hPa | - | - | - | - |
| 1777848415 | 12.22° C | 57% | 919.6 hPa | - | - | - | - |
| 1777848308 | 12.22° C | 57% | 919.6 hPa | - | - | - | - |
| 1777847407 | 12.78° C | 56% | 919.8 hPa | - | - | - | - |
* Rain since midnight (hover to see other rain measurements)
** Current wind speed in m/s (hover to see current wind gust speed)